createdAt,value
2023-02-15T00:01:48.689Z,6.70
2023-02-15T00:04:18.798Z,6.60
2023-02-15T00:06:45.926Z,6.60
2023-02-15T00:09:13.478Z,6.60
2023-02-15T00:11:41.118Z,6.60
2023-02-15T00:14:17.303Z,6.60
2023-02-15T00:16:45.383Z,6.50
2023-02-15T00:19:14.073Z,6.40
2023-02-15T00:21:41.508Z,6.50
2023-02-15T00:24:11.371Z,6.40
2023-02-15T00:26:39.804Z,6.40
2023-02-15T00:29:07.580Z,6.30
2023-02-15T00:31:35.125Z,6.30
2023-02-15T00:34:16.288Z,6.30
2023-02-15T00:36:44.454Z,6.20
2023-02-15T00:39:11.653Z,6.20
2023-02-15T00:41:38.571Z,6.10
2023-02-15T00:44:05.635Z,6.10
2023-02-15T00:46:33.340Z,6.10
2023-02-15T00:49:00.208Z,6.00
2023-02-15T00:51:27.298Z,6.00
2023-02-15T00:53:54.222Z,6.00
2023-02-15T00:56:21.092Z,6.10
2023-02-15T00:58:48.067Z,6.00
2023-02-15T01:01:18.085Z,6.00
2023-02-15T01:03:46.930Z,6.00
2023-02-15T01:06:15.013Z,6.00
2023-02-15T01:08:45.505Z,6.00
2023-02-15T01:11:15.115Z,5.90
2023-02-15T01:13:43.186Z,5.90
2023-02-15T01:16:10.166Z,5.90
2023-02-15T01:18:37.336Z,6.00
2023-02-15T01:21:15.808Z,6.00
2023-02-15T01:23:44.336Z,6.00
2023-02-15T01:26:13.507Z,6.00
2023-02-15T01:28:40.307Z,6.00
2023-02-15T01:31:14.401Z,5.90
2023-02-15T01:33:41.462Z,5.90
2023-02-15T01:36:09.924Z,5.90
2023-02-15T01:38:37.007Z,5.90
2023-02-15T01:41:23.142Z,5.90
2023-02-15T01:43:53.097Z,5.90
2023-02-15T01:46:27.864Z,5.90
2023-02-15T01:49:08.987Z,5.90
2023-02-15T01:51:38.909Z,5.80
2023-02-15T01:54:19.053Z,5.90
2023-02-15T01:56:47.675Z,5.70
2023-02-15T01:59:21.991Z,5.80
2023-02-15T02:01:51.325Z,5.80
2023-02-15T02:04:36.410Z,5.70
2023-02-15T02:07:05.233Z,5.70
2023-02-15T02:09:33.110Z,5.70
2023-02-15T02:12:00.850Z,5.70
2023-02-15T02:14:27.690Z,5.60
2023-02-15T02:17:43.251Z,5.60
2023-02-15T02:20:37.829Z,5.40
2023-02-15T02:23:04.490Z,5.50
2023-02-15T02:26:01.359Z,5.40
2023-02-15T02:29:13.836Z,5.40
2023-02-15T02:32:08.139Z,5.40
2023-02-15T02:34:42.345Z,5.40
2023-02-15T02:37:23.869Z,5.40
2023-02-15T02:40:00.666Z,5.40
2023-02-15T02:42:44.148Z,5.30
2023-02-15T02:45:16.695Z,5.40
2023-02-15T02:48:00.076Z,5.30
2023-02-15T02:50:30.108Z,5.30
2023-02-15T02:52:58.528Z,5.30
2023-02-15T02:55:34.309Z,5.30
2023-02-15T02:58:10.704Z,5.30
2023-02-15T03:00:46.492Z,5.20
2023-02-15T03:03:28.806Z,5.20
2023-02-15T03:05:59.983Z,5.20
2023-02-15T03:08:32.825Z,5.10
2023-02-15T03:11:02.195Z,5.10
2023-02-15T03:13:29.634Z,5.00
2023-02-15T03:16:17.409Z,5.00
2023-02-15T03:18:53.788Z,5.00
2023-02-15T03:21:50.432Z,5.00
2023-02-15T03:24:22.650Z,5.00
2023-02-15T03:26:55.052Z,5.00
2023-02-15T03:29:26.688Z,5.00
2023-02-15T03:31:59.829Z,5.00
2023-02-15T03:34:27.426Z,4.90
2023-02-15T03:37:17.797Z,5.00
2023-02-15T03:40:37.043Z,5.00
2023-02-15T03:43:31.269Z,4.90
2023-02-15T03:46:06.631Z,4.90
2023-02-15T03:48:40.026Z,4.90
2023-02-15T03:51:29.091Z,4.90
2023-02-15T03:53:58.084Z,4.90
2023-02-15T03:56:25.474Z,4.90
2023-02-15T03:59:11.050Z,4.90
2023-02-15T04:01:58.507Z,5.30
2023-02-15T04:04:31.329Z,4.80
2023-02-15T04:06:58.257Z,4.80
2023-02-15T04:09:43.712Z,4.80
2023-02-15T04:12:10.523Z,4.70
2023-02-15T04:14:55.905Z,4.80
2023-02-15T04:17:22.723Z,4.80
2023-02-15T04:20:07.866Z,4.80
2023-02-15T04:22:53.330Z,4.80
2023-02-15T04:25:20.936Z,4.70
2023-02-15T04:27:52.901Z,4.70
2023-02-15T04:30:23.017Z,4.80
2023-02-15T04:32:50.143Z,4.70
2023-02-15T04:35:17.491Z,4.80
2023-02-15T04:37:44.705Z,4.70
2023-02-15T04:40:13.918Z,4.70
2023-02-15T04:42:40.616Z,4.70
2023-02-15T04:45:07.977Z,4.80
2023-02-15T04:47:34.816Z,4.90
2023-02-15T04:50:01.536Z,4.80
2023-02-15T04:52:28.266Z,4.80
2023-02-15T04:54:55.097Z,4.80
2023-02-15T04:57:21.810Z,4.80
2023-02-15T04:59:48.495Z,4.80
2023-02-15T05:02:15.266Z,4.90
2023-02-15T05:04:42.006Z,4.90
2023-02-15T05:07:08.738Z,4.80
2023-02-15T05:09:35.497Z,4.80
2023-02-15T05:12:02.237Z,4.90
2023-02-15T05:14:29.060Z,4.80
2023-02-15T05:16:56.042Z,4.90
2023-02-15T05:19:25.439Z,4.80
2023-02-15T05:21:52.175Z,4.80
2023-02-15T05:24:37.571Z,4.80
2023-02-15T05:27:23.119Z,4.80
2023-02-15T05:29:49.882Z,4.80
2023-02-15T05:32:16.674Z,4.70
2023-02-15T05:34:43.458Z,4.70
2023-02-15T05:37:10.213Z,4.70
2023-02-15T05:39:36.946Z,4.70
2023-02-15T05:42:04.033Z,4.70
2023-02-15T05:44:30.939Z,4.60
2023-02-15T05:46:57.692Z,4.60
2023-02-15T05:49:24.470Z,4.60
2023-02-15T05:51:51.189Z,4.60
2023-02-15T05:54:17.970Z,4.70
2023-02-15T05:56:44.700Z,4.70
2023-02-15T05:59:11.518Z,4.70
2023-02-15T06:01:38.317Z,6.70
2023-02-15T06:04:05.178Z,4.70
2023-02-15T06:06:31.894Z,4.70
2023-02-15T06:08:58.635Z,4.70
2023-02-15T06:11:25.462Z,4.70
2023-02-15T06:13:52.248Z,4.60
2023-02-15T06:16:19.068Z,4.70
2023-02-15T06:18:45.815Z,4.80
2023-02-15T06:21:13.555Z,4.80
2023-02-15T06:23:40.271Z,4.70
2023-02-15T06:26:06.975Z,4.70
2023-02-15T06:28:33.713Z,4.70
2023-02-15T06:31:00.560Z,4.70
2023-02-15T06:33:27.438Z,4.70
2023-02-15T06:35:54.139Z,4.70
2023-02-15T06:38:20.936Z,4.80
2023-02-15T06:40:47.756Z,4.70
2023-02-15T06:43:14.513Z,4.70
2023-02-15T06:45:42.562Z,4.70
2023-02-15T06:48:09.344Z,4.80
2023-02-15T06:50:36.155Z,4.80
2023-02-15T06:53:03.180Z,4.90
2023-02-15T06:55:29.878Z,4.80
2023-02-15T06:57:56.555Z,4.80
2023-02-15T07:00:24.141Z,4.90
2023-02-15T07:03:00.272Z,4.90
2023-02-15T07:05:31.835Z,4.90
2023-02-15T07:07:59.808Z,4.90
2023-02-15T07:10:27.561Z,5.00
2023-02-15T07:12:54.652Z,4.90
2023-02-15T07:15:23.072Z,5.00
2023-02-15T07:17:50.261Z,5.00
2023-02-15T07:20:24.454Z,7.20
2023-02-15T07:22:51.629Z,5.10
2023-02-15T07:25:19.264Z,5.10
2023-02-15T07:27:46.073Z,5.10
2023-02-15T07:30:16.359Z,5.20
2023-02-15T07:33:04.787Z,5.30
2023-02-15T07:35:32.085Z,5.40
2023-02-15T07:37:58.798Z,5.40
2023-02-15T07:40:26.110Z,5.50
2023-02-15T07:42:57.094Z,5.60
2023-02-15T07:45:23.868Z,5.70
2023-02-15T07:47:50.651Z,5.80
2023-02-15T07:50:17.532Z,5.90
2023-02-15T07:52:44.240Z,5.90
2023-02-15T07:55:13.617Z,5.90
2023-02-15T07:57:45.749Z,6.00
2023-02-15T08:00:18.065Z,6.00
2023-02-15T08:03:12.887Z,6.10
2023-02-15T08:05:44.561Z,6.00
2023-02-15T08:08:30.691Z,6.50
2023-02-15T08:11:29.707Z,6.20
2023-02-15T08:14:04.531Z,6.30
2023-02-15T08:16:31.166Z,6.30
2023-02-15T08:18:59.889Z,6.30
2023-02-15T08:21:28.951Z,6.40
2023-02-15T08:23:58.534Z,6.50
2023-02-15T08:26:26.419Z,6.60
2023-02-15T08:28:53.302Z,6.60
2023-02-15T08:31:20.696Z,6.80
2023-02-15T08:33:49.154Z,6.90
2023-02-15T08:36:19.534Z,6.90
2023-02-15T08:38:46.701Z,7.10
2023-02-15T08:41:14.652Z,7.20
2023-02-15T08:43:42.278Z,7.30
2023-02-15T08:46:10.531Z,7.50
2023-02-15T08:48:37.810Z,7.40
2023-02-15T08:51:13.219Z,7.50
2023-02-15T08:53:41.827Z,7.50
2023-02-15T08:56:09.424Z,7.60
2023-02-15T08:58:37.072Z,7.70
2023-02-15T09:01:13.952Z,7.80
2023-02-15T09:03:40.840Z,7.90
2023-02-15T09:06:08.884Z,7.90
2023-02-15T09:08:35.702Z,8.00
2023-02-15T09:11:08.100Z,8.00
2023-02-15T09:13:35.580Z,8.10
2023-02-15T09:16:04.535Z,8.20
2023-02-15T09:18:34.596Z,8.20
2023-02-15T09:21:10.091Z,8.30
2023-02-15T09:23:37.430Z,8.40
2023-02-15T09:26:06.494Z,8.40
2023-02-15T09:28:36.279Z,8.50
2023-02-15T09:31:16.107Z,8.60
2023-02-15T09:33:44.783Z,8.90
2023-02-15T09:36:22.448Z,8.70
2023-02-15T09:38:58.530Z,8.90
2023-02-15T09:41:50.196Z,9.00
2023-02-15T09:44:45.348Z,9.00
2023-02-15T09:47:24.027Z,9.10
2023-02-15T09:50:09.904Z,9.20
2023-02-15T09:52:55.099Z,9.20
2023-02-15T09:55:46.859Z,9.20
2023-02-15T09:58:50.836Z,9.40
2023-02-15T10:01:41.167Z,9.50
2023-02-15T10:04:40.302Z,9.60
2023-02-15T10:07:15.715Z,9.70
2023-02-15T10:10:00.489Z,9.80
2023-02-15T10:12:53.393Z,9.90
2023-02-15T10:15:42.397Z,10.00
2023-02-15T10:18:34.131Z,10.20
2023-02-15T10:21:41.330Z,10.30
2023-02-15T10:24:46.556Z,10.40
2023-02-15T10:27:22.524Z,10.50
2023-02-15T10:29:52.320Z,10.60
2023-02-15T10:32:25.575Z,10.50
2023-02-15T10:35:01.557Z,10.70
2023-02-15T10:38:03.562Z,10.80
2023-02-15T10:40:48.868Z,10.80
2023-02-15T10:43:29.053Z,10.90
2023-02-15T10:46:17.484Z,11.00
2023-02-15T10:48:44.168Z,10.90
2023-02-15T10:51:28.400Z,11.10
2023-02-15T10:54:24.569Z,11.00
2023-02-15T10:57:10.539Z,11.10
2023-02-15T11:00:06.852Z,11.20
2023-02-15T11:03:01.352Z,11.40
2023-02-15T11:05:59.825Z,11.50
2023-02-15T11:08:30.439Z,11.70
2023-02-15T11:11:06.275Z,11.70
2023-02-15T11:13:39.822Z,11.90
2023-02-15T11:16:12.469Z,12.00
2023-02-15T11:18:57.011Z,12.00
2023-02-15T11:21:33.438Z,12.20
2023-02-15T11:24:01.931Z,12.30
2023-02-15T11:26:37.712Z,12.40
2023-02-15T11:29:17.647Z,12.40
2023-02-15T11:31:51.783Z,12.50
2023-02-15T11:34:26.751Z,12.40
2023-02-15T11:36:56.985Z,12.50
2023-02-15T11:39:29.435Z,12.50
2023-02-15T11:42:06.285Z,12.60
2023-02-15T11:44:40.302Z,12.80
2023-02-15T11:47:12.333Z,12.90
2023-02-15T11:49:40.019Z,12.90
2023-02-15T11:52:12.919Z,13.10
2023-02-15T11:54:51.012Z,13.80
2023-02-15T11:57:27.357Z,13.50
2023-02-15T12:00:04.987Z,13.40
2023-02-15T12:02:38.245Z,13.60
2023-02-15T12:05:11.821Z,13.50
2023-02-15T12:07:49.416Z,13.70
2023-02-15T12:10:29.305Z,13.80
2023-02-15T12:13:20.258Z,13.90
2023-02-15T12:15:53.166Z,13.80
2023-02-15T12:18:39.806Z,13.80
2023-02-15T12:21:12.816Z,14.10
2023-02-15T12:23:51.910Z,14.20
2023-02-15T12:26:45.125Z,14.20
2023-02-15T12:29:21.661Z,14.10
2023-02-15T12:31:52.616Z,14.20
2023-02-15T12:34:36.963Z,14.30
2023-02-15T12:37:17.940Z,14.40
2023-02-15T12:40:01.729Z,14.70
2023-02-15T12:42:41.950Z,15.50
2023-02-15T12:45:36.359Z,14.80
2023-02-15T12:48:20.346Z,15.10
2023-02-15T12:50:55.156Z,15.20
2023-02-15T12:53:26.315Z,15.20
2023-02-15T12:56:00.144Z,15.80
2023-02-15T12:58:29.019Z,15.60
2023-02-15T13:01:18.582Z,15.50
2023-02-15T13:04:14.736Z,15.50
2023-02-15T13:06:49.845Z,15.60
2023-02-15T13:09:21.483Z,15.40
2023-02-15T13:11:48.481Z,15.20
2023-02-15T13:14:23.406Z,15.10
2023-02-15T13:16:53.609Z,15.00
2023-02-15T13:20:01.719Z,15.60
2023-02-15T13:22:49.854Z,14.90
2023-02-15T13:25:26.115Z,15.30
2023-02-15T13:27:55.935Z,15.20
2023-02-15T13:30:35.799Z,15.20
2023-02-15T13:33:27.270Z,15.30
2023-02-15T13:36:09.109Z,15.50
2023-02-15T13:38:51.921Z,15.50
2023-02-15T13:41:53.180Z,15.40
2023-02-15T13:44:48.442Z,15.30
2023-02-15T13:47:24.128Z,15.30
2023-02-15T13:50:10.766Z,15.20
2023-02-15T13:52:50.185Z,15.10
2023-02-15T13:55:35.481Z,15.10
2023-02-15T13:58:08.133Z,15.10
2023-02-15T14:00:50.397Z,15.10
2023-02-15T14:03:55.476Z,15.10
2023-02-15T14:06:43.280Z,15.20
2023-02-15T14:09:12.940Z,15.20
2023-02-15T14:11:51.500Z,15.20
2023-02-15T14:14:53.229Z,15.30
2023-02-15T14:17:54.142Z,15.20
2023-02-15T14:20:29.623Z,15.20
2023-02-15T14:23:30.522Z,15.50
2023-02-15T14:26:03.406Z,15.20
2023-02-15T14:28:40.848Z,15.10
2023-02-15T14:31:11.375Z,15.00
2023-02-15T14:33:54.060Z,15.10
2023-02-15T14:36:21.529Z,15.10
2023-02-15T14:39:42.647Z,15.10
2023-02-15T14:42:15.719Z,15.10
2023-02-15T14:45:02.873Z,15.10
2023-02-15T14:47:40.941Z,15.10
2023-02-15T14:50:34.650Z,15.00
2023-02-15T14:53:16.323Z,15.10
2023-02-15T14:55:43.030Z,14.90
2023-02-15T14:58:14.450Z,15.00
2023-02-15T15:00:42.734Z,14.90
2023-02-15T15:03:24.141Z,15.00
2023-02-15T15:06:05.734Z,14.80
2023-02-15T15:08:40.881Z,15.00
2023-02-15T15:11:47.203Z,14.70
2023-02-15T15:14:32.424Z,14.80
2023-02-15T15:17:04.698Z,14.70
2023-02-15T15:19:53.716Z,14.70
2023-02-15T15:22:25.835Z,14.70
2023-02-15T15:24:59.552Z,14.70
2023-02-15T15:27:46.788Z,14.60
2023-02-15T15:30:19.625Z,14.50
2023-02-15T15:32:57.696Z,14.50
2023-02-15T15:35:55.591Z,14.60
2023-02-15T15:38:50.912Z,14.50
2023-02-15T15:41:30.079Z,14.50
2023-02-15T15:44:27.559Z,14.40
2023-02-15T15:47:10.487Z,14.40
2023-02-15T15:49:39.575Z,14.40
2023-02-15T15:52:17.548Z,14.20
2023-02-15T15:54:46.679Z,14.30
2023-02-15T15:57:35.831Z,14.80
2023-02-15T16:00:03.926Z,14.10
2023-02-15T16:02:51.583Z,14.10
2023-02-15T16:05:18.398Z,14.00
2023-02-15T16:07:45.151Z,13.90
2023-02-15T16:10:23.292Z,13.80
2023-02-15T16:12:50.727Z,13.80
2023-02-15T16:15:21.441Z,13.70
2023-02-15T16:17:55.821Z,13.70
2023-02-15T16:20:30.055Z,13.60
2023-02-15T16:23:34.667Z,13.50
2023-02-15T16:26:15.375Z,13.50
2023-02-15T16:28:52.708Z,13.40
2023-02-15T16:31:20.071Z,13.30
2023-02-15T16:33:47.457Z,13.30
2023-02-15T16:36:28.586Z,13.20
2023-02-15T16:38:58.100Z,13.20
2023-02-15T16:41:29.978Z,13.10
2023-02-15T16:44:03.956Z,13.00
2023-02-15T16:46:43.687Z,12.90
2023-02-15T16:49:22.896Z,12.90
2023-02-15T16:51:57.979Z,12.80
2023-02-15T16:54:26.388Z,12.70
2023-02-15T16:56:53.574Z,12.70
2023-02-15T16:59:44.360Z,12.60
2023-02-15T17:02:43.082Z,12.50
2023-02-15T17:05:13.046Z,12.40
2023-02-15T17:07:42.687Z,12.30
2023-02-15T17:10:31.970Z,12.20
2023-02-15T17:13:10.715Z,12.20
2023-02-15T17:15:40.406Z,12.20
2023-02-15T17:18:19.455Z,12.10
2023-02-15T17:20:48.457Z,12.20
2023-02-15T17:23:31.112Z,11.90
2023-02-15T17:25:59.637Z,12.10
2023-02-15T17:28:31.494Z,12.00
2023-02-15T17:30:59.605Z,12.00
2023-02-15T17:33:35.342Z,12.00
2023-02-15T17:36:10.101Z,12.00
2023-02-15T17:38:41.711Z,12.00
2023-02-15T17:41:09.761Z,11.90
2023-02-15T17:43:36.676Z,11.90
2023-02-15T17:46:03.484Z,11.90
2023-02-15T17:48:35.475Z,11.90
2023-02-15T17:51:04.751Z,11.80
2023-02-15T17:53:32.186Z,11.80
2023-02-15T17:55:59.254Z,11.80
2023-02-15T17:58:26.121Z,11.80
2023-02-15T18:01:16.602Z,11.70
2023-02-15T18:04:06.038Z,11.70
2023-02-15T18:06:53.028Z,11.60
2023-02-15T18:09:40.481Z,11.60
2023-02-15T18:12:27.830Z,11.50
2023-02-15T18:14:56.249Z,11.60
2023-02-15T18:17:32.579Z,11.60
2023-02-15T18:20:01.358Z,11.50
2023-02-15T18:22:29.547Z,11.40
2023-02-15T18:24:56.294Z,11.50
2023-02-15T18:27:23.101Z,11.40
2023-02-15T18:29:50.314Z,11.30
2023-02-15T18:32:32.599Z,11.30
2023-02-15T18:34:59.732Z,11.30
2023-02-15T18:37:29.483Z,11.20
2023-02-15T18:39:56.313Z,11.20
2023-02-15T18:42:27.490Z,11.10
2023-02-15T18:44:57.073Z,11.10
2023-02-15T18:47:24.260Z,11.00
2023-02-15T18:49:51.014Z,10.90
2023-02-15T18:52:21.761Z,11.10
2023-02-15T18:54:58.624Z,10.90
2023-02-15T18:57:25.987Z,10.90
2023-02-15T18:59:52.761Z,10.90
2023-02-15T19:02:19.807Z,10.80
2023-02-15T19:04:47.100Z,10.80
2023-02-15T19:07:29.803Z,10.70
2023-02-15T19:09:59.354Z,10.80
2023-02-15T19:12:28.405Z,10.80
2023-02-15T19:14:56.691Z,10.70
2023-02-15T19:17:23.892Z,10.80
2023-02-15T19:19:52.094Z,10.80
2023-02-15T19:22:30.097Z,10.90
2023-02-15T19:25:01.536Z,10.90
2023-02-15T19:27:31.530Z,10.90
2023-02-15T19:30:00.922Z,10.90
2023-02-15T19:32:28.403Z,10.90
2023-02-15T19:34:55.098Z,10.90
2023-02-15T19:37:38.212Z,10.90
2023-02-15T19:40:07.341Z,11.00
2023-02-15T19:42:34.717Z,11.00
2023-02-15T19:45:01.496Z,10.90
2023-02-15T19:47:28.694Z,10.80
2023-02-15T19:50:01.107Z,10.90
2023-02-15T19:52:27.858Z,10.80
2023-02-15T19:54:55.022Z,10.70
2023-02-15T19:57:21.782Z,10.80
2023-02-15T19:59:48.553Z,10.70
2023-02-15T20:02:18.874Z,10.70
2023-02-15T20:04:45.726Z,10.60
2023-02-15T20:07:28.407Z,10.60
2023-02-15T20:09:55.313Z,10.60
2023-02-15T20:12:24.771Z,10.50
2023-02-15T20:14:52.458Z,10.40
2023-02-15T20:17:19.427Z,10.40
2023-02-15T20:19:46.285Z,10.30
2023-02-15T20:22:27.387Z,10.40
2023-02-15T20:24:56.218Z,10.30
2023-02-15T20:27:22.999Z,10.30
2023-02-15T20:29:50.560Z,10.30
2023-02-15T20:32:17.423Z,10.10
2023-02-15T20:34:44.285Z,10.10
2023-02-15T20:37:23.379Z,10.10
2023-02-15T20:39:51.232Z,10.30
2023-02-15T20:42:18.785Z,10.10
2023-02-15T20:44:45.479Z,10.10
2023-02-15T20:47:12.278Z,10.10
2023-02-15T20:49:39.038Z,10.10
2023-02-15T20:52:20.360Z,10.10
2023-02-15T20:54:47.387Z,10.00
2023-02-15T20:57:14.394Z,10.00
2023-02-15T20:59:41.733Z,10.00
2023-02-15T21:02:20.968Z,10.00
2023-02-15T21:04:47.710Z,10.00
2023-02-15T21:07:20.122Z,10.00
2023-02-15T21:09:47.065Z,10.00
2023-02-15T21:12:16.094Z,9.90
2023-02-15T21:14:43.260Z,9.90
2023-02-15T21:17:14.706Z,9.80
2023-02-15T21:19:41.667Z,9.90
2023-02-15T21:22:14.254Z,9.80
2023-02-15T21:24:50.827Z,9.70
2023-02-15T21:27:17.970Z,9.80
2023-02-15T21:29:44.713Z,9.80
2023-02-15T21:32:11.619Z,9.70
2023-02-15T21:34:39.909Z,9.70
2023-02-15T21:37:26.386Z,9.60
2023-02-15T21:39:53.216Z,9.60
2023-02-15T21:42:38.724Z,9.50
2023-02-15T21:45:33.434Z,9.40
2023-02-15T21:48:00.275Z,9.40
2023-02-15T21:50:45.598Z,9.40
2023-02-15T21:53:18.407Z,9.40
2023-02-15T21:55:45.260Z,9.30
2023-02-15T21:58:24.380Z,9.30
2023-02-15T22:00:54.637Z,9.20
2023-02-15T22:03:23.146Z,9.20
2023-02-15T22:05:49.882Z,9.10
2023-02-15T22:08:16.888Z,9.10
2023-02-15T22:10:44.967Z,9.10
2023-02-15T22:13:27.193Z,9.10
2023-02-15T22:15:54.169Z,9.10
2023-02-15T22:18:33.409Z,9.00
2023-02-15T22:21:01.393Z,9.10
2023-02-15T22:23:28.337Z,9.00
2023-02-15T22:26:17.963Z,9.00
2023-02-15T22:28:44.727Z,9.00
2023-02-15T22:31:14.341Z,9.00
2023-02-15T22:33:41.183Z,9.00
2023-02-15T22:36:22.868Z,9.00
2023-02-15T22:38:49.626Z,9.00
2023-02-15T22:41:17.092Z,9.00
2023-02-15T22:43:45.290Z,9.00
2023-02-15T22:46:22.322Z,9.00
2023-02-15T22:48:49.893Z,9.00
2023-02-15T22:51:19.946Z,9.00
2023-02-15T22:53:49.650Z,9.00
2023-02-15T22:56:20.722Z,9.00
2023-02-15T22:58:50.170Z,9.00
2023-02-15T23:01:35.352Z,9.00
2023-02-15T23:04:03.943Z,9.10
2023-02-15T23:06:31.781Z,9.10
2023-02-15T23:09:00.708Z,9.10
2023-02-15T23:11:28.239Z,9.20
2023-02-15T23:13:55.049Z,9.20
2023-02-15T23:16:21.819Z,9.20
2023-02-15T23:18:49.322Z,9.20
2023-02-15T23:21:19.084Z,9.20
2023-02-15T23:23:48.588Z,9.30
2023-02-15T23:26:18.182Z,9.20
2023-02-15T23:28:46.272Z,9.20
2023-02-15T23:31:19.748Z,9.10
2023-02-15T23:33:47.546Z,9.20
2023-02-15T23:36:34.390Z,9.20
2023-02-15T23:39:34.122Z,9.20
2023-02-15T23:42:05.082Z,9.10
2023-02-15T23:44:32.185Z,9.00
2023-02-15T23:46:59.055Z,9.00
2023-02-15T23:49:25.785Z,9.00
2023-02-15T23:51:54.956Z,9.00
2023-02-15T23:54:24.233Z,9.00
2023-02-15T23:56:54.028Z,9.00
2023-02-15T23:59:23.404Z,9.10
